Time;durP1;ratioP1;P1;durP2;ratioP2;P2;SDS_P1;SDS_P2;PMS_P1;PMS_P2;Temp;Humidity;BMP_temperature;BMP_pressure;BME280_temperature;BME280_humidity;BME280_pressure;Samples;Min_cycle;Max_cycle;Signal;HPM_P1;HPM_P2
2021/06/12 00:02:17;;;;;;;5.78;3.42;;;;;;;;;;5042218;28;20024;-48
2021/06/12 00:04:43;;;;;;;6.90;5.10;;;;;;;;;;5057430;28;20036;-43
2021/06/12 00:07:10;;;;;;;8.93;5.15;;;;;;;;;;5042287;28;20031;-47
2021/06/12 00:09:36;;;;;;;4.65;3.40;;;;;;;;;;5069830;28;20024;-43
2021/06/12 00:12:05;;;;;;;4.60;4.00;;;;;;;;;;5093402;28;20089;-49
2021/06/12 00:14:31;;;;;;;22.83;16.35;;;;;;;;;;5097069;28;20085;-50
2021/06/12 00:16:57;;;;;;;10.43;7.10;;;;;;;;;;5097530;28;20024;-49
2021/06/12 00:19:23;;;;;;;22.08;15.23;;;;;;;;;;5097419;28;20016;-50
2021/06/12 00:21:49;;;;;;;6.22;4.78;;;;;;;;;;5097216;28;20036;-50
2021/06/12 00:24:15;;;;;;;13.63;8.15;;;;;;;;;;5097270;28;20020;-52
2021/06/12 00:26:41;;;;;;;17.35;12.45;;;;;;;;;;5097572;28;20031;-48
2021/06/12 00:29:07;;;;;;;7.10;5.40;;;;;;;;;;5097331;28;20030;-49
2021/06/12 00:31:33;;;;;;;13.88;8.73;;;;;;;;;;5097217;28;20039;-49
2021/06/12 00:34:00;;;;;;;15.52;9.68;;;;;;;;;;5097136;28;20020;-50
2021/06/12 00:36:26;;;;;;;8.80;6.90;;;;;;;;;;5097027;28;20024;-49
2021/06/12 00:38:54;;;;;;;10.02;7.20;;;;;;;;;;5096986;28;20503;-45
2021/06/12 00:41:21;;;;;;;8.35;5.30;;;;;;;;;;5096913;28;20068;-51
2021/06/12 00:43:49;;;;;;;9.00;5.90;;;;;;;;;;5097100;28;20098;-44
2021/06/12 00:46:16;;;;;;;4.13;3.35;;;;;;;;;;5096962;28;20111;-50
2021/06/12 00:48:43;;;;;;;4.05;3.63;;;;;;;;;;5097007;28;20024;-51
2021/06/12 00:51:09;;;;;;;7.63;4.10;;;;;;;;;;5096705;28;20032;-48
2021/06/12 00:53:42;;;;;;;5.53;4.00;;;;;;;;;;5096828;28;20024;-49
2021/06/12 00:56:09;;;;;;;5.20;3.58;;;;;;;;;;5096679;28;20093;-50
2021/06/12 00:58:36;;;;;;;11.43;6.60;;;;;;;;;;5096834;28;20012;-49
2021/06/12 01:01:03;;;;;;;12.75;8.45;;;;;;;;;;5096551;28;20498;-48
2021/06/12 01:03:29;;;;;;;8.55;6.80;;;;;;;;;;5096498;28;20024;-49
2021/06/12 01:05:56;;;;;;;7.95;4.93;;;;;;;;;;5096462;28;20422;-49
2021/06/12 01:08:22;;;;;;;8.27;5.93;;;;;;;;;;5096501;28;20017;-50
2021/06/12 01:10:49;;;;;;;10.07;7.10;;;;;;;;;;5096416;28;20084;-49
2021/06/12 01:13:31;;;;;;;12.88;8.35;;;;;;;;;;5096281;28;20036;-49
2021/06/12 01:16:02;;;;;;;11.32;7.57;;;;;;;;;;5096383;28;20038;-50
2021/06/12 01:18:31;;;;;;;13.85;9.30;;;;;;;;;;5096156;28;20016;-45
2021/06/12 01:21:23;;;;;;;5.28;3.55;;;;;;;;;;5096442;28;20043;-50
2021/06/12 01:24:04;;;;;;;9.73;5.93;;;;;;;;;;5094735;28;20039;-51
2021/06/12 01:26:49;;;;;;;7.38;5.70;;;;;;;;;;5096190;28;20027;-50
2021/06/12 01:29:21;;;;;;;6.80;5.00;;;;;;;;;;5095902;28;20381;-50
2021/06/12 01:31:48;;;;;;;5.10;4.07;;;;;;;;;;5096086;28;20012;-49
2021/06/12 01:34:14;;;;;;;5.25;3.92;;;;;;;;;;5095981;28;20443;-50
2021/06/12 01:36:42;;;;;;;5.70;3.78;;;;;;;;;;5095902;28;20136;-49
2021/06/12 01:39:08;;;;;;;5.28;3.50;;;;;;;;;;5095867;28;20380;-50
2021/06/12 01:41:36;;;;;;;5.53;3.33;;;;;;;;;;5095628;28;20028;-49
2021/06/12 01:44:03;;;;;;;9.07;3.75;;;;;;;;;;5095912;28;20380;-48
2021/06/12 01:46:30;;;;;;;6.28;3.60;;;;;;;;;;5095866;28;20088;-47
2021/06/12 01:48:58;;;;;;;5.88;3.60;;;;;;;;;;5095982;28;20016;-48
2021/06/12 01:51:25;;;;;;;5.47;3.22;;;;;;;;;;5095699;28;20672;-50
2021/06/12 01:53:57;;;;;;;3.25;2.90;;;;;;;;;;5095856;28;20027;-49
2021/06/12 01:56:26;;;;;;;2.90;2.65;;;;;;;;;;5095710;28;20016;-48
2021/06/12 01:58:54;;;;;;;3.45;3.15;;;;;;;;;;5095665;28;20098;-47
2021/06/12 02:01:22;;;;;;;6.90;3.25;;;;;;;;;;5095373;28;20156;-48
2021/06/12 02:03:49;;;;;;;4.18;3.30;;;;;;;;;;5095412;28;20024;-49
2021/06/12 02:06:17;;;;;;;5.03;3.28;;;;;;;;;;5095410;28;20050;-50
2021/06/12 02:08:44;;;;;;;5.38;3.35;;;;;;;;;;5095462;28;20024;-50
2021/06/12 02:11:12;;;;;;;4.18;3.10;;;;;;;;;;5095319;28;20536;-50
2021/06/12 02:13:38;;;;;;;5.60;3.47;;;;;;;;;;5095011;28;20078;-50
2021/06/12 02:16:05;;;;;;;3.33;2.92;;;;;;;;;;5095289;28;20039;-51
2021/06/12 02:18:32;;;;;;;4.65;3.35;;;;;;;;;;5095107;28;20017;-50
2021/06/12 02:20:58;;;;;;;4.53;3.58;;;;;;;;;;5094951;28;20040;-50
2021/06/12 02:23:25;;;;;;;3.72;3.13;;;;;;;;;;5094965;28;20141;-50
2021/06/12 02:25:53;;;;;;;5.82;3.78;;;;;;;;;;5094835;28;20027;-50
2021/06/12 02:28:21;;;;;;;4.10;3.40;;;;;;;;;;5094990;28;20021;-49
2021/06/12 02:30:51;;;;;;;6.32;4.22;;;;;;;;;;5094877;28;20109;-50
2021/06/12 02:33:18;;;;;;;5.35;3.97;;;;;;;;;;5095083;28;20024;-49
2021/06/12 02:35:45;;;;;;;4.47;3.95;;;;;;;;;;5094333;28;20032;-48
2021/06/12 02:38:11;;;;;;;4.93;4.30;;;;;;;;;;5095368;28;20019;-49
2021/06/12 02:40:37;;;;;;;7.72;4.15;;;;;;;;;;5094654;28;20032;-48
2021/06/12 02:43:03;;;;;;;6.03;3.78;;;;;;;;;;5094791;28;20430;-50
2021/06/12 02:45:30;;;;;;;5.18;4.30;;;;;;;;;;5094839;28;20372;-48
2021/06/12 02:47:58;;;;;;;5.10;4.05;;;;;;;;;;5094739;28;20012;-49
2021/06/12 02:50:33;;;;;;;5.32;3.88;;;;;;;;;;5094466;28;20486;-48
2021/06/12 02:53:04;;;;;;;4.30;3.90;;;;;;;;;;5094369;28;20032;-43
2021/06/12 02:55:31;;;;;;;5.22;4.03;;;;;;;;;;5094408;28;20024;-46
2021/06/12 02:57:57;;;;;;;8.45;3.95;;;;;;;;;;5094573;28;20035;-49
2021/06/12 03:00:24;;;;;;;7.95;3.92;;;;;;;;;;5094334;28;20064;-49
2021/06/12 03:02:50;;;;;;;4.45;3.58;;;;;;;;;;5094525;28;20024;-49
2021/06/12 03:05:19;;;;;;;4.97;3.88;;;;;;;;;;5094158;28;20475;-49
2021/06/12 03:07:48;;;;;;;6.85;3.90;;;;;;;;;;5094129;28;20372;-49
2021/06/12 03:10:14;;;;;;;7.53;4.15;;;;;;;;;;5092673;28;20039;-49
2021/06/12 03:12:41;;;;;;;5.03;4.00;;;;;;;;;;5094362;28;20058;-46
2021/06/12 03:15:10;;;;;;;4.15;3.60;;;;;;;;;;5093945;28;20219;-48
2021/06/12 03:17:36;;;;;;;4.57;4.00;;;;;;;;;;5093958;28;20085;-48
2021/06/12 03:20:05;;;;;;;4.13;3.70;;;;;;;;;;5094050;28;20035;-49
2021/06/12 03:22:32;;;;;;;3.97;3.10;;;;;;;;;;5093899;28;20062;-47
2021/06/12 03:24:58;;;;;;;5.05;3.70;;;;;;;;;;5093790;28;20089;-47
2021/06/12 03:27:25;;;;;;;4.40;3.75;;;;;;;;;;5094107;28;20055;-43
2021/06/12 03:29:53;;;;;;;5.05;4.10;;;;;;;;;;5093918;28;20507;-48
2021/06/12 03:32:21;;;;;;;4.13;3.80;;;;;;;;;;5093868;28;20028;-47
2021/06/12 03:34:48;;;;;;;5.82;3.75;;;;;;;;;;5093995;28;20027;-47
2021/06/12 03:37:14;;;;;;;4.88;3.90;;;;;;;;;;5093817;28;20095;-47
2021/06/12 03:39:40;;;;;;;6.70;4.28;;;;;;;;;;5093831;28;20110;-48
2021/06/12 03:42:09;;;;;;;5.10;3.65;;;;;;;;;;5093551;28;20066;-49
2021/06/12 03:44:37;;;;;;;5.15;3.63;;;;;;;;;;5094071;28;20020;-45
2021/06/12 03:47:03;;;;;;;7.38;3.92;;;;;;;;;;5093264;28;20099;-50
2021/06/12 03:49:29;;;;;;;4.65;3.72;;;;;;;;;;5093463;28;20020;-42
2021/06/12 03:51:58;;;;;;;5.60;3.60;;;;;;;;;;5093522;28;20103;-49
2021/06/12 03:54:24;;;;;;;5.60;3.65;;;;;;;;;;5093922;28;20049;-48
2021/06/12 03:56:50;;;;;;;4.65;3.28;;;;;;;;;;5093694;28;20048;-49
2021/06/12 03:59:17;;;;;;;4.40;3.65;;;;;;;;;;5093607;28;20099;-47
2021/06/12 04:01:43;;;;;;;7.32;3.80;;;;;;;;;;5093540;28;20180;-47
2021/06/12 04:04:09;;;;;;;4.70;3.75;;;;;;;;;;5093336;28;20472;-42
2021/06/12 04:06:35;;;;;;;4.13;3.28;;;;;;;;;;5093516;28;20031;-42
2021/06/12 04:09:01;;;;;;;4.55;3.78;;;;;;;;;;5093607;28;20027;-48
2021/06/12 04:11:27;;;;;;;6.95;4.00;;;;;;;;;;5093455;28;20024;-49
2021/06/12 04:13:53;;;;;;;5.05;3.40;;;;;;;;;;5093267;28;20048;-49
2021/06/12 04:16:19;;;;;;;4.03;3.50;;;;;;;;;;5093550;28;20025;-48
2021/06/12 04:18:46;;;;;;;5.47;3.72;;;;;;;;;;5093330;28;20063;-50
2021/06/12 04:21:12;;;;;;;5.80;3.78;;;;;;;;;;5093595;28;20044;-48
2021/06/12 04:23:38;;;;;;;4.13;3.72;;;;;;;;;;5093085;28;20082;-43
2021/06/12 04:26:04;;;;;;;4.25;3.63;;;;;;;;;;5093487;28;20040;-50
2021/06/12 04:28:30;;;;;;;5.38;3.97;;;;;;;;;;5093486;28;20024;-49
2021/06/12 04:30:56;;;;;;;3.85;3.08;;;;;;;;;;5093352;28;20070;-50
2021/06/12 04:33:22;;;;;;;4.40;2.97;;;;;;;;;;5093692;28;20016;-50
2021/06/12 04:35:48;;;;;;;3.95;3.55;;;;;;;;;;5093364;28;20480;-50
2021/06/12 04:38:14;;;;;;;3.67;3.00;;;;;;;;;;5093093;28;20024;-50
2021/06/12 04:40:43;;;;;;;5.78;3.55;;;;;;;;;;5092975;28;20024;-49
2021/06/12 04:43:11;;;;;;;6.05;3.58;;;;;;;;;;5093294;28;20456;-44
2021/06/12 04:45:37;;;;;;;4.97;3.40;;;;;;;;;;5093105;28;20077;-46
2021/06/12 04:48:04;;;;;;;4.78;3.35;;;;;;;;;;5093310;28;20115;-45
2021/06/12 04:50:34;;;;;;;5.35;3.88;;;;;;;;;;5092965;28;20047;-46
2021/06/12 04:53:00;;;;;;;4.50;3.47;;;;;;;;;;5093201;28;20387;-50
2021/06/12 04:55:26;;;;;;;6.70;3.08;;;;;;;;;;5093109;28;20095;-42
2021/06/12 04:57:53;;;;;;;3.60;3.30;;;;;;;;;;5092991;28;20032;-42
2021/06/12 05:00:20;;;;;;;5.00;3.65;;;;;;;;;;5096258;28;20452;-42
2021/06/12 05:02:46;;;;;;;4.13;2.67;;;;;;;;;;5096731;28;20028;-50
2021/06/12 05:05:12;;;;;;;3.72;3.30;;;;;;;;;;5096739;28;20028;-51
2021/06/12 05:07:38;;;;;;;3.22;2.70;;;;;;;;;;5096713;28;20189;-46
2021/06/12 05:10:05;;;;;;;4.95;3.03;;;;;;;;;;5096621;28;20016;-51
2021/06/12 05:12:31;;;;;;;8.10;3.22;;;;;;;;;;5096712;28;20384;-49
2021/06/12 05:14:59;;;;;;;5.05;3.38;;;;;;;;;;5096265;28;20044;-43
2021/06/12 05:17:26;;;;;;;3.90;3.05;;;;;;;;;;5096341;28;20024;-43
2021/06/12 05:19:52;;;;;;;4.05;3.33;;;;;;;;;;5096890;28;20024;-50
2021/06/12 05:22:25;;;;;;;4.45;3.47;;;;;;;;;;5096191;28;20062;-43
2021/06/12 05:24:52;;;;;;;4.63;3.40;;;;;;;;;;5096284;28;20030;-48
2021/06/12 05:27:18;;;;;;;4.20;3.63;;;;;;;;;;5096265;28;20456;-43
2021/06/12 05:29:45;;;;;;;3.90;3.15;;;;;;;;;;5096210;28;20028;-45
2021/06/12 05:32:12;;;;;;;4.93;3.17;;;;;;;;;;5096219;28;20020;-50
2021/06/12 05:34:38;;;;;;;5.00;3.28;;;;;;;;;;5096115;28;20031;-50
2021/06/12 05:37:04;;;;;;;6.70;3.45;;;;;;;;;;5095845;28;20020;-50
2021/06/12 05:39:31;;;;;;;3.42;2.75;;;;;;;;;;5096064;28;20063;-50
2021/06/12 05:41:57;;;;;;;5.00;2.72;;;;;;;;;;5095828;28;20119;-43
2021/06/12 05:44:23;;;;;;;3.85;2.67;;;;;;;;;;5096419;28;20036;-52
2021/06/12 05:46:50;;;;;;;6.55;3.28;;;;;;;;;;5095937;28;20039;-47
2021/06/12 05:49:16;;;;;;;5.15;2.95;;;;;;;;;;5095729;28;20028;-51
2021/06/12 05:51:42;;;;;;;3.80;3.05;;;;;;;;;;5095884;28;20020;-50
2021/06/12 05:54:09;;;;;;;4.22;2.83;;;;;;;;;;5095778;28;20032;-51
2021/06/12 05:56:35;;;;;;;4.78;3.17;;;;;;;;;;5095803;28;20077;-50
2021/06/12 05:59:01;;;;;;;8.98;6.95;;;;;;;;;;5095935;28;20024;-51
2021/06/12 06:01:27;;;;;;;8.98;5.93;;;;;;;;;;5095506;28;20028;-51
2021/06/12 06:03:55;;;;;;;20.88;12.35;;;;;;;;;;5095519;28;20024;-52
2021/06/12 06:06:21;;;;;;;10.85;6.53;;;;;;;;;;5095295;28;20020;-52
2021/06/12 06:08:47;;;;;;;11.75;8.93;;;;;;;;;;5095716;28;20158;-51
2021/06/12 06:11:13;;;;;;;7.72;5.72;;;;;;;;;;5094144;28;20032;-51
2021/06/12 06:13:40;;;;;;;9.18;5.50;;;;;;;;;;5095003;28;20051;-51
2021/06/12 06:16:07;;;;;;;6.68;4.65;;;;;;;;;;5095212;28;20081;-50
2021/06/12 06:18:33;;;;;;;6.00;4.35;;;;;;;;;;5095096;28;20026;-51
2021/06/12 06:20:59;;;;;;;17.17;11.20;;;;;;;;;;5095141;28;20040;-51
2021/06/12 06:23:25;;;;;;;33.25;21.75;;;;;;;;;;5095260;28;20017;-51
2021/06/12 06:25:51;;;;;;;18.45;12.05;;;;;;;;;;5094926;28;20467;-50
2021/06/12 06:28:18;;;;;;;22.98;14.95;;;;;;;;;;5095138;28;20024;-49
2021/06/12 06:30:44;;;;;;;18.60;12.43;;;;;;;;;;5095024;28;20039;-50
2021/06/12 06:33:11;;;;;;;15.48;9.23;;;;;;;;;;5094783;28;20157;-51
2021/06/12 06:35:37;;;;;;;8.25;4.93;;;;;;;;;;5094803;28;20021;-52
2021/06/12 06:38:03;;;;;;;6.32;4.47;;;;;;;;;;5094814;28;20028;-51
2021/06/12 06:40:29;;;;;;;6.05;4.28;;;;;;;;;;5094591;28;20062;-50
2021/06/12 06:42:56;;;;;;;11.55;7.75;;;;;;;;;;5094884;28;20032;-50
2021/06/12 06:45:22;;;;;;;30.15;19.73;;;;;;;;;;5094635;28;20430;-50
2021/06/12 06:47:48;;;;;;;12.73;8.57;;;;;;;;;;5094838;28;20063;-53
2021/06/12 06:50:16;;;;;;;11.90;6.18;;;;;;;;;;5094864;28;20486;-50
2021/06/12 06:52:43;;;;;;;4.88;3.78;;;;;;;;;;5094436;28;20063;-51
2021/06/12 06:55:09;;;;;;;21.30;15.27;;;;;;;;;;5094493;28;20028;-50
2021/06/12 06:57:35;;;;;;;30.58;19.73;;;;;;;;;;5094733;28;20059;-53
2021/06/12 07:00:02;;;;;;;30.55;19.70;;;;;;;;;;5095142;28;20103;-54
2021/06/12 07:02:29;;;;;;;10.55;8.23;;;;;;;;;;5095205;28;20036;-54
2021/06/12 07:04:55;;;;;;;17.00;11.20;;;;;;;;;;5091574;28;20422;-50
2021/06/12 07:07:21;;;;;;;28.88;18.60;;;;;;;;;;5073274;28;20020;-50
2021/06/12 07:09:47;;;;;;;12.25;7.43;;;;;;;;;;5073127;28;20021;-43
2021/06/12 07:12:13;;;;;;;22.77;14.10;;;;;;;;;;5073060;28;20028;-45
2021/06/12 07:14:41;;;;;;;40.22;26.02;;;;;;;;;;5073140;28;20555;-45
2021/06/12 07:17:07;;;;;;;5.55;4.93;;;;;;;;;;5073215;28;20020;-49
2021/06/12 07:19:34;;;;;;;6.43;5.03;;;;;;;;;;5073226;28;20017;-48
2021/06/12 07:22:00;;;;;;;12.80;8.48;;;;;;;;;;5071486;28;20133;-44
2021/06/12 07:24:26;;;;;;;28.90;18.75;;;;;;;;;;5073068;28;20025;-46
2021/06/12 07:26:52;;;;;;;8.50;7.10;;;;;;;;;;5073060;28;20503;-45
2021/06/12 07:29:20;;;;;;;12.15;8.27;;;;;;;;;;5072821;28;20024;-48
2021/06/12 07:31:46;;;;;;;39.80;25.67;;;;;;;;;;5072929;28;20029;-46
2021/06/12 07:34:12;;;;;;;61.08;42.65;;;;;;;;;;5072951;28;20077;-42
2021/06/12 07:36:39;;;;;;;30.10;20.02;;;;;;;;;;5072945;28;20021;-48
2021/06/12 07:39:06;;;;;;;19.55;13.90;;;;;;;;;;5072970;28;20021;-44
2021/06/12 07:41:32;;;;;;;8.60;6.13;;;;;;;;;;5072735;28;20380;-48
2021/06/12 07:43:58;;;;;;;10.90;8.50;;;;;;;;;;5071555;28;20362;-46
2021/06/12 07:46:25;;;;;;;16.90;10.38;;;;;;;;;;5072896;28;20027;-46
2021/06/12 07:48:51;;;;;;;23.17;14.80;;;;;;;;;;5073384;28;20024;-46
2021/06/12 07:51:18;;;;;;;23.33;15.93;;;;;;;;;;5073344;28;20020;-44
2021/06/12 07:53:44;;;;;;;16.17;7.88;;;;;;;;;;5073285;28;20024;-47
2021/06/12 07:56:10;;;;;;;7.30;4.82;;;;;;;;;;5073105;28;20540;-45
2021/06/12 07:58:36;;;;;;;19.33;11.38;;;;;;;;;;5073254;28;20042;-44
2021/06/12 08:01:05;;;;;;;19.33;14.15;;;;;;;;;;5073080;28;20428;-44
2021/06/12 08:03:31;;;;;;;24.92;17.17;;;;;;;;;;5073089;28;20029;-45
2021/06/12 08:05:57;;;;;;;33.05;19.60;;;;;;;;;;5073064;28;20016;-43
2021/06/12 08:08:23;;;;;;;9.88;6.90;;;;;;;;;;5073094;28;20016;-48
2021/06/12 08:10:49;;;;;;;41.58;25.65;;;;;;;;;;5073010;28;20555;-47
2021/06/12 08:13:15;;;;;;;11.32;8.18;;;;;;;;;;5072887;28;20131;-48
2021/06/12 08:15:41;;;;;;;37.80;24.48;;;;;;;;;;5073013;28;20107;-45
2021/06/12 08:18:09;;;;;;;8.05;4.97;;;;;;;;;;5071848;28;20020;-47
2021/06/12 08:20:36;;;;;;;48.60;31.35;;;;;;;;;;5072925;28;20104;-45
2021/06/12 08:23:02;;;;;;;15.80;10.90;;;;;;;;;;5072893;28;20093;-44
2021/06/12 08:25:28;;;;;;;9.82;8.65;;;;;;;;;;5073096;28;20021;-47
2021/06/12 08:27:54;;;;;;;5.53;4.70;;;;;;;;;;5075708;28;20036;-48
2021/06/12 08:30:23;;;;;;;14.55;10.93;;;;;;;;;;5093043;28;20473;-47
2021/06/12 08:32:49;;;;;;;12.35;7.90;;;;;;;;;;5092841;28;20028;-47
2021/06/12 08:35:15;;;;;;;6.78;5.22;;;;;;;;;;5096458;28;20372;-50
2021/06/12 08:37:41;;;;;;;8.95;5.25;;;;;;;;;;5096866;28;20031;-46
2021/06/12 08:40:07;;;;;;;23.80;17.13;;;;;;;;;;5096773;28;20020;-46
2021/06/12 08:42:33;;;;;;;16.67;12.80;;;;;;;;;;5096928;28;20032;-44
2021/06/12 08:45:03;;;;;;;12.25;9.45;;;;;;;;;;5096999;28;20054;-51
2021/06/12 08:47:31;;;;;;;18.40;12.05;;;;;;;;;;5096870;28;20028;-50
2021/06/12 08:49:57;;;;;;;4.20;3.70;;;;;;;;;;5085229;28;20048;-53
2021/06/12 08:52:24;;;;;;;7.97;6.07;;;;;;;;;;5075878;28;20019;-50
2021/06/12 08:54:50;;;;;;;7.30;5.35;;;;;;;;;;5076238;28;20035;-54
2021/06/12 08:57:16;;;;;;;6.93;6.22;;;;;;;;;;5076403;28;20396;-52
2021/06/12 08:59:42;;;;;;;16.58;12.45;;;;;;;;;;5094433;28;20032;-49
2021/06/12 09:02:08;;;;;;;4.00;3.60;;;;;;;;;;5096285;28;20039;-52
2021/06/12 09:04:37;;;;;;;11.55;8.55;;;;;;;;;;5096433;28;20472;-51
2021/06/12 09:07:21;;;;;;;7.20;5.82;;;;;;;;;;5096337;28;20028;-42
2021/06/12 09:09:54;;;;;;;6.80;4.80;;;;;;;;;;5096301;28;20365;-50
2021/06/12 09:12:21;;;;;;;18.63;13.50;;;;;;;;;;5096167;28;20031;-45
2021/06/12 09:15:06;;;;;;;9.85;8.48;;;;;;;;;;5095946;28;20048;-43
2021/06/12 09:17:39;;;;;;;19.98;14.63;;;;;;;;;;5096549;28;20065;-43
2021/06/12 09:20:08;;;;;;;11.63;9.48;;;;;;;;;;5096183;28;20028;-42
2021/06/12 09:22:35;;;;;;;19.25;11.80;;;;;;;;;;5096140;28;20036;-44
2021/06/12 09:25:01;;;;;;;12.88;9.38;;;;;;;;;;5095844;28;20024;-45
2021/06/12 09:27:27;;;;;;;4.22;3.67;;;;;;;;;;5095985;28;20027;-43
2021/06/12 09:29:53;;;;;;;4.57;3.30;;;;;;;;;;5095405;28;20099;-44
2021/06/12 09:32:24;;;;;;;8.20;5.30;;;;;;;;;;5095959;28;20048;-42
2021/06/12 09:34:55;;;;;;;14.07;10.63;;;;;;;;;;5095824;28;20024;-44
2021/06/12 09:37:31;;;;;;;30.58;21.40;;;;;;;;;;5095728;28;20034;-41
2021/06/12 09:40:03;;;;;;;10.48;8.82;;;;;;;;;;5095444;28;20024;-43
2021/06/12 09:42:36;;;;;;;10.70;5.45;;;;;;;;;;5095513;28;20126;-43
2021/06/12 09:45:06;;;;;;;11.95;7.05;;;;;;;;;;5095539;28;20383;-41
2021/06/12 09:47:32;;;;;;;5.40;4.47;;;;;;;;;;5095636;28;20056;-41
2021/06/12 09:50:02;;;;;;;17.83;12.65;;;;;;;;;;5095571;28;20035;-45
2021/06/12 09:52:39;;;;;;;7.18;3.72;;;;;;;;;;5095504;28;20032;-42
2021/06/12 09:55:06;;;;;;;29.70;20.15;;;;;;;;;;5095360;28;20107;-41
2021/06/12 09:57:32;;;;;;;14.27;8.20;;;;;;;;;;5094868;28;20032;-42
2021/06/12 09:59:59;;;;;;;14.77;10.27;;;;;;;;;;5092398;28;20020;-48
2021/06/12 10:02:35;;;;;;;6.32;5.40;;;;;;;;;;5093827;28;20369;-47
2021/06/12 10:05:02;;;;;;;6.10;3.92;;;;;;;;;;5095249;28;20020;-49
2021/06/12 10:07:28;;;;;;;7.78;4.25;;;;;;;;;;5093686;28;20158;-49
2021/06/12 10:09:55;;;;;;;22.13;14.88;;;;;;;;;;5093709;28;20016;-52
2021/06/12 10:12:21;;;;;;;6.97;4.28;;;;;;;;;;5095147;28;20028;-49
2021/06/12 10:14:50;;;;;;;5.57;4.43;;;;;;;;;;5095047;28;20071;-47
2021/06/12 10:17:17;;;;;;;5.75;4.50;;;;;;;;;;5095047;28;20074;-46
2021/06/12 10:19:43;;;;;;;4.05;3.30;;;;;;;;;;5094912;28;20020;-48
2021/06/12 10:22:10;;;;;;;4.88;2.75;;;;;;;;;;5094782;28;20418;-49
2021/06/12 10:24:36;;;;;;;6.28;3.03;;;;;;;;;;5094571;28;20020;-48
2021/06/12 10:27:03;;;;;;;7.25;2.90;;;;;;;;;;5094720;28;20448;-48
2021/06/12 10:29:29;;;;;;;13.40;6.18;;;;;;;;;;5094758;28;20365;-46
2021/06/12 10:31:58;;;;;;;39.13;11.95;;;;;;;;;;5094808;28;20099;-49
2021/06/12 10:34:28;;;;;;;6.38;3.80;;;;;;;;;;5094782;28;20472;-47
2021/06/12 10:36:58;;;;;;;3.42;2.60;;;;;;;;;;5094150;28;20032;-48
2021/06/12 10:39:26;;;;;;;9.35;4.03;;;;;;;;;;5093153;28;20024;-48
2021/06/12 10:42:11;;;;;;;8.82;4.53;;;;;;;;;;5094373;28;20051;-49
2021/06/12 10:44:37;;;;;;;5.20;3.70;;;;;;;;;;5094288;28;20434;-49
2021/06/12 10:47:04;;;;;;;7.53;4.18;;;;;;;;;;5094440;28;20020;-48
2021/06/12 10:49:34;;;;;;;8.75;4.63;;;;;;;;;;5094404;28;20393;-48
2021/06/12 10:52:01;;;;;;;5.13;3.58;;;;;;;;;;5094290;28;20103;-43
2021/06/12 10:54:45;;;;;;;5.57;3.85;;;;;;;;;;5094421;28;20023;-47
2021/06/12 10:57:11;;;;;;;9.13;4.25;;;;;;;;;;5093645;28;20031;-42
2021/06/12 10:59:39;;;;;;;6.43;4.47;;;;;;;;;;5094122;28;20020;-49
2021/06/12 11:02:21;;;;;;;117.30;56.85;;;;;;;;;;5094087;28;20032;-48
2021/06/12 11:05:14;;;;;;;45.40;24.85;;;;;;;;;;5094149;28;20031;-50
2021/06/12 11:07:38;;;;;;;70.18;37.75;;;;;;;;;;5093419;28;20159;-51
2021/06/12 11:10:14;;;;;;;60.53;44.03;;;;;;;;;;5094277;28;20604;-45
2021/06/12 11:13:01;;;;;;;17.80;13.00;;;;;;;;;;5094022;28;20016;-49
2021/06/12 11:15:28;;;;;;;9.43;6.85;;;;;;;;;;5093974;28;20075;-45
2021/06/12 11:18:13;;;;;;;67.18;48.47;;;;;;;;;;5093809;28;20012;-45
2021/06/12 11:20:45;;;;;;;105.97;63.58;;;;;;;;;;5093470;28;20479;-43
2021/06/12 11:23:13;;;;;;;56.85;38.70;;;;;;;;;;5093772;28;20055;-50
2021/06/12 11:25:41;;;;;;;40.25;28.55;;;;;;;;;;5093384;28;20504;-46
2021/06/12 11:28:27;;;;;;;73.43;47.67;;;;;;;;;;5093573;28;20056;-45
2021/06/12 11:30:54;;;;;;;17.48;12.63;;;;;;;;;;5093551;28;20024;-42
2021/06/12 11:33:22;;;;;;;22.77;16.00;;;;;;;;;;5093589;28;20570;-44
2021/06/12 11:35:51;;;;;;;38.05;29.75;;;;;;;;;;5093558;28;20028;-43
2021/06/12 11:38:17;;;;;;;25.10;17.75;;;;;;;;;;5093081;28;20024;-41
2021/06/12 11:40:54;;;;;;;23.77;15.55;;;;;;;;;;5093406;28;20027;-45
2021/06/12 11:43:33;;;;;;;49.45;29.88;;;;;;;;;;5093475;28;20060;-42
2021/06/12 11:46:00;;;;;;;27.83;20.00;;;;;;;;;;5093574;28;20035;-43
2021/06/12 11:48:26;;;;;;;20.27;13.85;;;;;;;;;;5093477;28;20028;-45
2021/06/12 11:50:53;;;;;;;7.22;4.40;;;;;;;;;;5093237;28;20098;-46
2021/06/12 11:53:20;;;;;;;3.15;2.83;;;;;;;;;;5093343;28;20027;-45
2021/06/12 11:55:47;;;;;;;54.42;28.63;;;;;;;;;;5093241;28;20021;-42
2021/06/12 11:58:14;;;;;;;60.75;38.60;;;;;;;;;;5093426;28;20032;-43
2021/06/12 12:00:43;;;;;;;66.22;42.38;;;;;;;;;;5093284;28;20051;-42
2021/06/12 12:03:10;;;;;;;50.97;33.83;;;;;;;;;;5093348;28;20032;-45
2021/06/12 12:05:36;;;;;;;18.80;12.23;;;;;;;;;;5093197;28;20369;-43
2021/06/12 12:08:04;;;;;;;23.73;16.08;;;;;;;;;;5093364;28;20077;-43
2021/06/12 12:10:30;;;;;;;12.07;6.90;;;;;;;;;;5096986;28;20020;-42
2021/06/12 12:12:56;;;;;;;9.18;7.47;;;;;;;;;;5097240;28;20032;-44
2021/06/12 12:15:38;;;;;;;5.03;3.00;;;;;;;;;;5097507;28;20563;-43
2021/06/12 12:18:05;;;;;;;2.53;2.33;;;;;;;;;;5096094;28;20085;-42
2021/06/12 12:20:35;;;;;;;3.33;1.80;;;;;;;;;;5097603;28;20047;-44
2021/06/12 12:23:01;;;;;;;2.55;1.70;;;;;;;;;;5097439;28;20032;-49
2021/06/12 12:25:27;;;;;;;1.20;1.10;;;;;;;;;;5097108;28;20024;-44
2021/06/12 12:28:04;;;;;;;1.40;1.30;;;;;;;;;;5097153;28;20558;-46
2021/06/12 12:30:30;;;;;;;2.08;1.48;;;;;;;;;;5097118;28;20036;-45
2021/06/12 12:33:13;;;;;;;2.63;1.50;;;;;;;;;;5097014;28;20037;-47
2021/06/12 12:35:39;;;;;;;1.90;1.70;;;;;;;;;;5097020;28;20028;-45
2021/06/12 12:38:12;;;;;;;1.73;1.63;;;;;;;;;;5097052;28;20055;-47
2021/06/12 12:40:38;;;;;;;2.72;2.22;;;;;;;;;;5096919;28;20080;-41
2021/06/12 12:43:05;;;;;;;2.20;2.00;;;;;;;;;;5096876;28;20115;-43
2021/06/12 12:45:31;;;;;;;3.58;2.33;;;;;;;;;;5096877;28;20024;-43
2021/06/12 12:47:58;;;;;;;7.43;3.30;;;;;;;;;;5096967;28;20036;-52
2021/06/12 12:50:24;;;;;;;41.90;23.85;;;;;;;;;;5096859;28;20055;-48
2021/06/12 12:53:06;;;;;;;28.88;20.98;;;;;;;;;;5096891;28;20476;-49
2021/06/12 12:55:33;;;;;;;11.93;9.00;;;;;;;;;;5096657;28;20361;-51
2021/06/12 12:58:00;;;;;;;21.98;16.65;;;;;;;;;;5096582;28;20472;-51
2021/06/12 13:00:28;;;;;;;22.27;15.05;;;;;;;;;;5096489;28;20053;-52
2021/06/12 13:02:56;;;;;;;30.40;23.50;;;;;;;;;;5087090;28;20503;-52
2021/06/12 13:05:22;;;;;;;28.30;18.05;;;;;;;;;;5075384;28;20354;-51
2021/06/12 13:08:07;;;;;;;17.95;12.13;;;;;;;;;;5076110;28;20024;-50
2021/06/12 13:10:36;;;;;;;69.90;45.55;;;;;;;;;;5075940;28;20491;-50
2021/06/12 13:13:04;;;;;;;34.22;22.00;;;;;;;;;;5075962;28;20044;-44
2021/06/12 13:15:30;;;;;;;40.08;26.70;;;;;;;;;;5076173;28;20442;-51
2021/06/12 13:18:08;;;;;;;34.50;22.30;;;;;;;;;;5076112;28;20385;-44
2021/06/12 13:20:34;;;;;;;7.53;5.65;;;;;;;;;;5075417;28;20062;-51
2021/06/12 13:23:00;;;;;;;7.15;4.10;;;;;;;;;;5075904;28;20115;-41
2021/06/12 13:25:27;;;;;;;4.25;3.53;;;;;;;;;;5076069;28;20541;-44
2021/06/12 13:27:55;;;;;;;3.42;2.15;;;;;;;;;;5075809;28;20100;-51
2021/06/12 13:30:21;;;;;;;46.40;26.48;;;;;;;;;;5075728;28;20031;-48
2021/06/12 13:32:50;;;;;;;31.70;17.80;;;;;;;;;;5075718;28;20017;-48
2021/06/12 13:35:24;;;;;;;13.80;8.48;;;;;;;;;;5075624;28;20024;-47
2021/06/12 13:38:07;;;;;;;23.75;15.35;;;;;;;;;;5075642;28;20067;-49
2021/06/12 13:40:34;;;;;;;61.95;44.70;;;;;;;;;;5075697;28;20423;-49
2021/06/12 13:43:01;;;;;;;28.60;19.13;;;;;;;;;;5075272;28;20076;-51
2021/06/12 13:45:27;;;;;;;4.75;3.70;;;;;;;;;;5075380;28;20078;-50
2021/06/12 13:47:53;;;;;;;8.10;5.57;;;;;;;;;;5075647;28;20035;-49
2021/06/12 13:50:19;;;;;;;24.13;4.88;;;;;;;;;;5075382;28;20108;-45
2021/06/12 13:52:45;;;;;;;11.82;7.85;;;;;;;;;;5075420;28;20059;-49
2021/06/12 13:55:15;;;;;;;31.58;20.42;;;;;;;;;;5075299;28;20020;-50
2021/06/12 13:57:41;;;;;;;60.95;41.42;;;;;;;;;;5075263;28;20142;-50
2021/06/12 14:00:08;;;;;;;75.30;52.88;;;;;;;;;;5075381;28;20119;-51
2021/06/12 14:02:35;;;;;;;38.75;27.48;;;;;;;;;;5075302;28;20040;-42
2021/06/12 14:05:01;;;;;;;8.65;5.68;;;;;;;;;;5075257;28;20357;-49
2021/06/12 14:07:27;;;;;;;13.63;6.45;;;;;;;;;;5075027;28;20062;-49
2021/06/12 14:09:53;;;;;;;6.15;4.28;;;;;;;;;;5075143;28;20020;-50
2021/06/12 14:12:22;;;;;;;4.30;3.30;;;;;;;;;;5074993;28;20059;-50
2021/06/12 14:14:48;;;;;;;12.98;10.75;;;;;;;;;;5074828;28;20557;-50
2021/06/12 14:17:14;;;;;;;175.60;91.05;;;;;;;;;;5074956;28;20112;-50
2021/06/12 14:19:45;;;;;;;114.05;60.50;;;;;;;;;;5074853;28;20033;-44
2021/06/12 14:22:11;;;;;;;;;;;;;;;;;;5075433;28;20085;-51
2021/06/12 14:24:37;;;;;;;91.43;56.72;;;;;;;;;;5074925;28;20261;-51
2021/06/12 14:27:04;;;;;;;46.13;30.00;;;;;;;;;;5074708;28;20025;-50
2021/06/12 14:29:32;;;;;;;13.90;8.38;;;;;;;;;;5074774;28;20028;-42
2021/06/12 14:31:58;;;;;;;42.53;19.60;;;;;;;;;;5073875;28;20028;-41
2021/06/12 14:34:24;;;;;;;127.03;56.10;;;;;;;;;;5074626;28;20099;-42
2021/06/12 14:36:50;;;;;;;42.08;18.45;;;;;;;;;;5074439;28;20423;-52
2021/06/12 14:39:17;;;;;;;51.35;28.67;;;;;;;;;;5074522;28;20024;-44